Time;durP1;ratioP1;P1;durP2;ratioP2;P2;SDS_P1;SDS_P2;PMS_P1;PMS_P2;Temp;Humidity;BMP_temperature;BMP_pressure;BME280_temperature;BME280_humidity;BME280_pressure;Samples;Min_cycle;Max_cycle;Signal;HPM_P1;HPM_P2
2023/02/26 00:02:36;;;;;;;0.90;0.90;;;4.20;40.60;;;;;;10364779;28;20285;-69
2023/02/26 00:07:39;;;;;;;1.17;1.10;;;4.10;40.80;;;;;;10357744;28;20790;-69
2023/02/26 00:12:44;;;;;;;2.47;1.10;;;4.30;40.80;;;;;;10363252;28;20226;-69
2023/02/26 00:17:58;;;;;;;1.40;1.30;;;4.00;40.80;;;;;;10364249;28;20242;-69
2023/02/26 00:23:01;;;;;;;1.40;1.23;;;4.00;41.20;;;;;;10364880;28;20225;-69
2023/02/26 00:28:05;;;;;;;1.30;1.20;;;4.00;40.70;;;;;;10363573;28;20230;-69
2023/02/26 00:33:10;;;;;;;2.00;1.17;;;4.00;40.70;;;;;;10362639;28;20227;-69
2023/02/26 00:38:16;;;;;;;1.57;1.20;;;4.00;40.70;;;;;;10364158;28;20242;-68
2023/02/26 00:43:23;;;;;;;1.33;1.10;;;4.10;40.60;;;;;;10361181;28;20699;-68
2023/02/26 00:48:47;;;;;;;1.20;0.93;;;4.10;40.50;;;;;;10363635;28;20579;-68
2023/02/26 00:53:57;;;;;;;0.90;0.90;;;4.20;40.70;;;;;;10364468;28;20404;-68
2023/02/26 00:59:00;;;;;;;1.20;0.80;;;4.20;40.10;;;;;;10362940;28;20230;-68
2023/02/26 01:04:06;;;;;;;1.73;0.90;;;4.20;40.00;;;;;;10361577;28;20662;-68
2023/02/26 01:09:17;;;;;;;1.03;0.90;;;4.20;39.60;;;;;;10360855;28;20230;-68
2023/02/26 01:14:21;;;;;;;0.80;0.80;;;4.30;39.70;;;;;;10361247;28;20226;-67
2023/02/26 01:19:33;;;;;;;1.80;0.90;;;4.20;39.30;;;;;;10359542;28;20234;-67
2023/02/26 01:24:37;;;;;;;0.80;0.80;;;4.20;39.30;;;;;;10361865;28;20252;-67
2023/02/26 01:29:40;;;;;;;1.00;0.70;;;4.20;39.20;;;;;;10361842;28;20235;-67
2023/02/26 01:34:54;;;;;;;0.80;0.80;;;4.20;39.00;;;;;;10360461;28;20221;-67
2023/02/26 01:40:25;;;;;;;0.73;0.70;;;4.10;38.90;;;;;;10362549;28;20245;-67
2023/02/26 01:45:33;;;;;;;1.57;0.90;;;4.00;38.80;;;;;;10360896;28;20230;-67
2023/02/26 01:50:39;;;;;;;1.00;0.80;;;4.00;38.80;;;;;;10362098;28;20230;-68
2023/02/26 01:55:43;;;;;;;1.30;0.80;;;4.00;38.70;;;;;;10359132;28;20226;-68
2023/02/26 02:00:46;;;;;;;1.43;1.00;;;3.90;38.50;;;;;;10360886;28;20636;-68
2023/02/26 02:05:55;;;;;;;0.77;0.73;;;3.90;38.60;;;;;;10357907;28;20745;-68
2023/02/26 02:10:58;;;;;;;0.80;0.70;;;3.90;38.70;;;;;;10357866;28;20245;-67
2023/02/26 02:16:15;;;;;;;1.03;0.97;;;3.80;38.70;;;;;;10358584;28;20230;-68
2023/02/26 02:21:48;;;;;;;1.27;1.03;;;3.80;38.60;;;;;;10360765;28;20330;-69
2023/02/26 02:26:59;;;;;;;3.47;1.30;;;3.80;38.60;;;;;;10358462;28;20226;-69
2023/02/26 02:32:08;;;;;;;1.87;1.17;;;3.70;38.50;;;;;;10358637;28;20218;-69
2023/02/26 02:37:16;;;;;;;1.40;0.90;;;3.60;38.50;;;;;;10359180;28;20230;-69
2023/02/26 02:42:25;;;;;;;1.43;1.10;;;3.50;38.50;;;;;;10358702;28;20613;-69
2023/02/26 02:47:33;;;;;;;1.50;1.10;;;3.40;38.60;;;;;;10358879;28;20280;-69
2023/02/26 02:52:41;;;;;;;1.43;1.33;;;3.40;38.70;;;;;;10358226;28;20230;-69
2023/02/26 02:57:48;;;;;;;1.30;1.10;;;3.30;38.60;;;;;;10356647;28;20612;-69
2023/02/26 03:03:00;;;;;;;2.13;1.10;;;3.30;38.70;;;;;;10358773;28;20225;-70
2023/02/26 03:08:08;;;;;;;2.03;1.30;;;3.20;38.70;;;;;;10355179;28;20222;-71
2023/02/26 03:13:16;;;;;;;2.27;1.13;;;3.30;38.60;;;;;;10357774;28;20218;-70
2023/02/26 03:18:31;;;;;;;3.57;1.20;;;3.20;38.40;;;;;;10357586;28;20604;-69
2023/02/26 03:23:39;;;;;;;1.20;1.10;;;3.20;38.40;;;;;;10359168;28;20246;-70
2023/02/26 03:28:50;;;;;;;2.03;1.20;;;3.10;38.40;;;;;;10357106;28;20226;-70
2023/02/26 03:34:00;;;;;;;3.07;1.43;;;3.10;38.40;;;;;;10355051;28;20589;-72
2023/02/26 03:39:09;;;;;;;1.33;1.20;;;3.00;38.50;;;;;;10360259;28;20619;-72
2023/02/26 03:44:18;;;;;;;1.63;1.17;;;3.00;38.40;;;;;;10356763;28;20284;-70
2023/02/26 03:49:33;;;;;;;1.00;1.00;;;2.90;38.30;;;;;;10357643;28;20257;-70
2023/02/26 03:54:39;;;;;;;1.30;1.10;;;2.90;39.10;;;;;;10354546;28;20238;-71
2023/02/26 03:59:43;;;;;;;1.73;1.17;;;2.90;38.30;;;;;;10360732;28;20222;-70
2023/02/26 04:04:51;;;;;;;2.73;1.20;;;2.90;38.40;;;;;;10365799;28;20233;-70
2023/02/26 04:09:56;;;;;;;2.50;1.00;;;2.80;38.30;;;;;;10360820;28;20223;-71
2023/02/26 04:14:59;;;;;;;2.70;1.00;;;2.90;38.40;;;;;;10363040;28;20226;-70
2023/02/26 04:20:08;;;;;;;1.07;0.93;;;2.90;38.30;;;;;;10364850;28;20253;-72
2023/02/26 04:25:11;;;;;;;3.50;1.33;;;2.80;38.00;;;;;;10362467;28;20232;-71
2023/02/26 04:30:18;;;;;;;3.03;1.27;;;2.90;38.10;;;;;;10363948;28;20726;-71
2023/02/26 04:35:22;;;;;;;1.53;1.20;;;2.70;38.20;;;;;;10362830;28;20230;-70
2023/02/26 04:40:26;;;;;;;2.77;1.33;;;2.60;38.20;;;;;;10363768;28;20229;-69
2023/02/26 04:45:29;;;;;;;2.07;1.30;;;2.60;38.50;;;;;;10363338;28;20292;-72
2023/02/26 04:50:34;;;;;;;2.83;1.30;;;2.40;38.60;;;;;;10362555;28;20234;-74
2023/02/26 04:55:37;;;;;;;1.67;1.10;;;2.40;38.80;;;;;;10365242;28;20608;-70
2023/02/26 05:00:41;;;;;;;1.73;1.10;;;2.30;38.70;;;;;;10362493;28;20230;-69
2023/02/26 05:05:46;;;;;;;3.17;1.50;;;2.30;38.80;;;;;;10364453;28;20238;-72
2023/02/26 05:10:51;;;;;;;2.17;1.20;;;2.30;38.80;;;;;;10361516;28;20671;-69
2023/02/26 05:15:57;;;;;;;2.67;1.30;;;2.30;38.90;;;;;;10360351;28;20218;-70
2023/02/26 05:21:01;;;;;;;1.50;1.27;;;2.20;38.80;;;;;;10361617;28;20760;-72
2023/02/26 05:26:05;;;;;;;1.40;1.10;;;2.20;39.00;;;;;;10361936;28;20215;-70
2023/02/26 05:31:08;;;;;;;1.97;1.27;;;2.20;39.00;;;;;;10363514;28;20357;-72
2023/02/26 05:36:13;;;;;;;1.67;1.10;;;2.30;39.00;;;;;;10358449;28;20687;-70
2023/02/26 05:41:16;;;;;;;2.47;1.37;;;2.30;38.90;;;;;;10359759;28;20231;-70
2023/02/26 05:46:19;;;;;;;1.40;1.07;;;2.20;38.70;;;;;;10361622;28;20605;-70
2023/02/26 05:51:24;;;;;;;1.60;1.00;;;2.20;38.70;;;;;;10361698;28;20313;-70
2023/02/26 05:56:27;;;;;;;1.60;1.33;;;2.20;38.70;;;;;;10360348;28;20237;-70
2023/02/26 06:01:30;;;;;;;1.73;1.20;;;2.20;38.60;;;;;;10361807;28;20222;-70
2023/02/26 06:06:35;;;;;;;1.93;1.20;;;2.20;38.60;;;;;;10357087;28;20284;-70
2023/02/26 06:11:39;;;;;;;3.23;1.90;;;2.20;38.50;;;;;;10359560;28;20222;-70
2023/02/26 06:16:42;;;;;;;2.10;1.40;;;2.20;38.60;;;;;;10360519;28;20762;-70
2023/02/26 06:21:47;;;;;;;1.87;1.77;;;2.10;38.60;;;;;;10359581;28;20249;-70
2023/02/26 06:26:50;;;;;;;1.37;1.27;;;2.20;38.70;;;;;;10358648;28;20241;-73
2023/02/26 06:31:53;;;;;;;1.77;1.37;;;2.20;38.60;;;;;;10360834;28;20229;-73
2023/02/26 06:36:58;;;;;;;1.70;1.23;;;2.20;38.70;;;;;;10357769;28;20592;-73
2023/02/26 06:42:01;;;;;;;2.10;1.27;;;2.20;38.80;;;;;;10359037;28;20222;-73
2023/02/26 06:47:05;;;;;;;1.30;1.20;;;2.20;38.50;;;;;;10358240;28;20218;-73
2023/02/26 06:52:09;;;;;;;1.97;1.43;;;2.30;38.60;;;;;;10359590;28;20230;-73
2023/02/26 06:57:12;;;;;;;2.97;1.40;;;2.30;38.70;;;;;;10358815;28;20699;-73
2023/02/26 07:02:17;;;;;;;1.20;1.10;;;2.30;38.70;;;;;;10358415;28;20237;-73
2023/02/26 07:07:22;;;;;;;2.80;1.07;;;2.30;38.80;;;;;;10356785;28;20696;-73
2023/02/26 07:12:25;;;;;;;3.10;1.20;;;2.40;39.00;;;;;;10359454;28;20292;-73
2023/02/26 07:17:28;;;;;;;2.13;1.33;;;2.30;38.80;;;;;;10358492;28;20821;-73
2023/02/26 07:22:33;;;;;;;2.70;1.40;;;2.30;38.80;;;;;;10356837;28;20233;-73
2023/02/26 07:27:36;;;;;;;1.10;1.10;;;2.40;39.00;;;;;;10357930;28;20606;-70
2023/02/26 07:32:39;;;;;;;2.30;1.20;;;2.30;38.90;;;;;;10359489;28;20225;-71
2023/02/26 07:37:44;;;;;;;1.33;1.20;;;2.30;39.10;;;;;;10364971;28;20234;-71
2023/02/26 07:42:47;;;;;;;1.67;1.30;;;2.30;39.30;;;;;;10364438;28;20229;-71
2023/02/26 07:47:51;;;;;;;1.50;1.40;;;2.30;39.40;;;;;;10364214;28;20308;-71
2023/02/26 07:52:56;;;;;;;1.60;1.37;;;2.40;39.60;;;;;;10366870;28;20820;-71
2023/02/26 07:57:59;;;;;;;1.67;1.57;;;2.40;39.80;;;;;;10364105;28;20225;-71
2023/02/26 08:03:02;;;;;;;2.13;1.40;;;2.40;39.70;;;;;;10366397;28;20218;-71
2023/02/26 08:08:07;;;;;;;1.90;1.53;;;2.40;40.40;;;;;;10361961;28;20222;-70
2023/02/26 08:13:10;;;;;;;1.40;1.30;;;2.50;40.00;;;;;;10361492;28;20223;-71
2023/02/26 08:18:13;;;;;;;1.60;1.50;;;2.50;40.10;;;;;;10362184;28;20234;-70
2023/02/26 08:23:17;;;;;;;2.50;1.60;;;2.60;40.20;;;;;;10363253;28;20229;-69
2023/02/26 08:28:21;;;;;;;3.30;1.53;;;2.70;40.40;;;;;;10362197;28;20238;-69
2023/02/26 08:33:24;;;;;;;1.63;1.33;;;2.80;40.40;;;;;;10362635;28;20230;-69
2023/02/26 08:38:30;;;;;;;1.60;1.50;;;3.00;40.40;;;;;;10362848;28;20234;-69
2023/02/26 08:43:33;;;;;;;2.27;1.50;;;3.10;40.20;;;;;;10359954;28;20230;-69
2023/02/26 08:48:36;;;;;;;1.97;1.50;;;3.30;39.80;;;;;;10360012;28;20280;-69
2023/02/26 08:53:40;;;;;;;2.50;1.63;;;3.40;39.60;;;;;;10358701;28;20222;-69
2023/02/26 08:58:43;;;;;;;1.57;1.47;;;3.50;39.60;;;;;;10362795;28;20230;-69
2023/02/26 09:03:47;;;;;;;1.53;1.43;;;3.50;39.50;;;;;;10363375;28;20229;-69
2023/02/26 09:08:51;;;;;;;1.40;1.30;;;3.50;39.50;;;;;;10359585;28;20226;-68
2023/02/26 09:13:54;;;;;;;1.40;1.30;;;3.60;39.50;;;;;;10361681;28;20218;-69
2023/02/26 09:18:58;;;;;;;1.40;1.30;;;3.60;39.40;;;;;;10362862;28;20238;-68
2023/02/26 09:24:02;;;;;;;1.33;1.23;;;3.80;39.60;;;;;;10362842;28;20230;-68
2023/02/26 09:29:06;;;;;;;1.40;1.30;;;3.70;39.60;;;;;;10362213;28;20227;-69
2023/02/26 09:34:09;;;;;;;1.20;1.10;;;3.90;39.40;;;;;;10363258;28;20715;-69
2023/02/26 09:39:14;;;;;;;1.00;1.00;;;3.90;39.40;;;;;;10361428;28;20234;-69
2023/02/26 09:44:21;;;;;;;1.10;1.10;;;4.10;39.70;;;;;;10360219;28;20226;-69
2023/02/26 09:49:34;;;;;;;1.47;1.30;;;4.10;39.20;;;;;;10360880;28;20242;-69
2023/02/26 09:54:44;;;;;;;1.20;1.20;;;4.10;38.70;;;;;;10359956;28;20219;-69
2023/02/26 09:59:47;;;;;;;1.40;1.30;;;4.10;38.70;;;;;;10359518;28;20234;-69
2023/02/26 10:04:57;;;;;;;1.23;1.17;;;4.10;39.30;;;;;;10359942;28;20230;-69
2023/02/26 10:10:15;;;;;;;1.17;1.17;;;4.20;39.30;;;;;;10359589;28;20230;-69
2023/02/26 10:15:22;;;;;;;1.47;1.20;;;4.40;39.20;;;;;;10360011;28;20229;-69
2023/02/26 10:20:32;;;;;;;1.20;1.20;;;4.40;38.90;;;;;;10360517;28;20253;-69
2023/02/26 10:25:41;;;;;;;1.20;1.20;;;4.40;38.60;;;;;;10357099;28;20246;-67
2023/02/26 10:30:50;;;;;;;1.27;1.20;;;4.40;38.50;;;;;;10358446;28;20222;-68
2023/02/26 10:35:54;;;;;;;1.00;1.00;;;4.40;38.60;;;;;;10358538;28;20313;-69
2023/02/26 10:41:06;;;;;;;1.17;1.17;;;4.40;38.80;;;;;;10358197;28;20222;-69
2023/02/26 10:46:22;;;;;;;1.13;1.13;;;4.40;38.70;;;;;;10354947;28;20226;-69
2023/02/26 10:51:31;;;;;;;1.40;1.30;;;4.50;38.60;;;;;;10357693;28;20600;-68
2023/02/26 10:56:36;;;;;;;1.10;1.10;;;4.50;38.50;;;;;;10357925;28;20238;-68
2023/02/26 11:01:39;;;;;;;1.83;1.33;;;4.60;38.80;;;;;;10357157;28;20237;-69
2023/02/26 11:06:46;;;;;;;1.50;1.40;;;4.70;38.40;;;;;;10358555;28;20603;-69
2023/02/26 11:11:52;;;;;;;1.47;1.37;;;4.90;38.80;;;;;;10367293;28;20234;-69
2023/02/26 11:16:59;;;;;;;1.50;1.40;;;5.00;38.30;;;;;;10365742;28;20230;-69
2023/02/26 11:22:05;;;;;;;1.60;1.50;;;5.20;38.00;;;;;;10366283;28;20698;-69
2023/02/26 11:27:14;;;;;;;1.40;1.30;;;5.30;37.70;;;;;;10366532;28;20280;-69
2023/02/26 11:32:22;;;;;;;1.30;1.30;;;5.40;37.20;;;;;;10366944;28;20233;-69
2023/02/26 11:37:30;;;;;;;1.43;1.33;;;5.40;37.10;;;;;;10364630;28;20230;-69
2023/02/26 11:42:48;;;;;;;1.23;1.13;;;5.40;37.10;;;;;;10363924;28;20241;-68
2023/02/26 11:48:01;;;;;;;1.40;1.30;;;5.40;36.00;;;;;;10363516;28;20913;-69
2023/02/26 11:53:08;;;;;;;1.30;1.20;;;5.40;36.30;;;;;;10363189;28;20226;-68
2023/02/26 11:58:20;;;;;;;1.47;1.30;;;5.30;37.00;;;;;;10363725;28;20746;-68
2023/02/26 12:03:28;;;;;;;1.17;1.17;;;5.30;36.40;;;;;;10359400;28;20229;-70
2023/02/26 12:08:37;;;;;;;2.60;1.27;;;5.20;37.00;;;;;;10364320;28;20317;-68
2023/02/26 12:13:48;;;;;;;1.27;1.20;;;5.30;37.00;;;;;;10362062;28;20222;-69
2023/02/26 12:19:01;;;;;;;1.10;1.10;;;5.30;37.00;;;;;;10362583;28;20702;-69
2023/02/26 12:24:25;;;;;;;1.47;1.37;;;5.30;36.10;;;;;;10362323;28;20223;-69
2023/02/26 12:29:47;;;;;;;1.40;1.30;;;5.30;35.80;;;;;;10362795;28;20238;-69
2023/02/26 12:35:11;;;;;;;1.40;1.17;;;5.40;35.80;;;;;;10359271;28;20231;-69
2023/02/26 12:40:31;;;;;;;1.50;1.40;;;5.40;35.10;;;;;;10361830;28;20226;-71
2023/02/26 12:45:46;;;;;;;1.40;1.30;;;5.50;34.50;;;;;;10359345;28;20230;-71
2023/02/26 12:51:02;;;;;;;1.20;1.20;;;5.50;34.30;;;;;;10359110;28;20502;-69
2023/02/26 12:56:24;;;;;;;1.50;1.40;;;5.50;34.70;;;;;;10362573;28;20479;-71
2023/02/26 13:01:54;;;;;;;2.03;1.40;;;5.60;34.80;;;;;;10360423;28;20230;-71
2023/02/26 13:07:29;;;;;;;1.50;1.40;;;5.60;36.20;;;;;;10360454;28;20605;-69
2023/02/26 13:12:42;;;;;;;1.23;1.20;;;5.70;34.20;;;;;;10358239;28;20234;-68
2023/02/26 13:17:57;;;;;;;1.30;1.20;;;5.80;34.50;;;;;;10360003;28;20226;-69
2023/02/26 13:23:03;;;;;;;1.60;1.50;;;5.80;34.10;;;;;;10355515;28;20730;-69
2023/02/26 13:28:19;;;;;;;1.27;1.27;;;5.80;34.80;;;;;;10351521;28;20229;-69
2023/02/26 13:33:27;;;;;;;1.83;1.10;;;5.90;35.00;;;;;;10347480;28;20706;-68
2023/02/26 13:38:40;;;;;;;1.27;1.20;;;5.90;35.90;;;;;;10349547;28;20253;-68
2023/02/26 13:44:04;;;;;;;1.50;1.40;;;6.00;34.70;;;;;;10345095;28;20229;-68
2023/02/26 13:49:17;;;;;;;1.30;1.30;;;5.90;33.80;;;;;;10349111;28;20230;-69
2023/02/26 13:54:35;;;;;;;5.70;5.10;;;5.90;34.00;;;;;;10349912;28;20234;-69
2023/02/26 13:59:48;;;;;;;1.50;1.40;;;5.90;34.00;;;;;;10348779;28;20234;-69
2023/02/26 14:04:57;;;;;;;1.50;1.40;;;5.80;34.20;;;;;;10351485;28;20227;-72
2023/02/26 14:10:02;;;;;;;1.13;1.00;;;5.90;34.50;;;;;;10357530;28;20218;-72
2023/02/26 14:15:37;;;;;;;1.40;1.33;;;6.00;35.60;;;;;;10357451;28;20225;-71
2023/02/26 14:20:41;;;;;;;1.30;1.20;;;6.10;33.70;;;;;;10343232;28;20230;-75
2023/02/26 14:25:48;;;;;;;1.10;1.10;;;6.10;35.30;;;;;;10358385;28;20749;-71
2023/02/26 14:30:59;;;;;;;1.63;1.53;;;6.00;35.30;;;;;;10358385;28;20692;-71
2023/02/26 14:36:06;;;;;;;3.00;2.80;;;5.90;35.20;;;;;;10354462;28;20635;-70
2023/02/26 14:41:18;;;;;;;2.50;2.30;;;5.80;34.20;;;;;;10354994;28;20244;-71
2023/02/26 14:46:22;;;;;;;1.27;1.17;;;5.70;34.00;;;;;;10353507;28;20327;-71
2023/02/26 14:51:38;;;;;;;1.20;1.00;;;5.70;35.40;;;;;;10354368;28;20258;-71
2023/02/26 14:56:54;;;;;;;1.20;1.10;;;5.70;35.40;;;;;;10357674;28;20238;-71
2023/02/26 15:02:05;;;;;;;1.27;1.17;;;5.70;35.50;;;;;;10360626;28;20226;-72
2023/02/26 15:07:35;;;;;;;2.47;1.10;;;5.60;35.80;;;;;;10359919;28;20284;-71
2023/02/26 15:12:53;;;;;;;1.37;1.27;;;5.70;35.20;;;;;;10359696;28;20222;-71
2023/02/26 15:18:07;;;;;;;1.50;1.30;;;5.70;35.30;;;;;;10357111;28;20276;-71
2023/02/26 15:23:38;;;;;;;1.30;1.20;;;5.80;35.60;;;;;;10358129;28;20683;-71
2023/02/26 15:28:42;;;;;;;1.30;1.20;;;5.80;34.50;;;;;;10358700;28;20241;-71
2023/02/26 15:33:48;;;;;;;1.73;1.03;;;5.80;36.10;;;;;;10357133;28;20229;-72
2023/02/26 15:38:57;;;;;;;27.67;3.77;;;5.70;36.10;;;;;;10358467;28;20245;-75
2023/02/26 15:44:04;;;;;;;2.17;1.97;;;5.60;36.40;;;;;;10353676;28;20233;-72
2023/02/26 15:49:10;;;;;;;1.20;1.20;;;5.40;36.40;;;;;;10357260;28;20227;-71
2023/02/26 15:54:19;;;;;;;1.33;1.03;;;5.30;35.90;;;;;;10353490;28;20222;-68
2023/02/26 15:59:26;;;;;;;1.63;1.30;;;5.20;35.40;;;;;;10363130;28;20725;-68
2023/02/26 16:04:29;;;;;;;1.10;1.10;;;5.20;35.30;;;;;;10362600;28;20229;-71
2023/02/26 16:09:39;;;;;;;1.03;1.03;;;5.10;35.70;;;;;;10364009;28;20233;-71
2023/02/26 16:14:46;;;;;;;1.33;1.20;;;5.00;35.50;;;;;;10361160;28;20718;-70
2023/02/26 16:19:51;;;;;;;1.20;1.10;;;4.90;35.70;;;;;;10362057;28;20238;-70
2023/02/26 16:25:00;;;;;;;1.00;1.00;;;4.90;36.00;;;;;;10361387;28;20235;-72
2023/02/26 16:30:06;;;;;;;1.30;1.20;;;4.90;35.80;;;;;;10356818;28;20222;-72
2023/02/26 16:35:12;;;;;;;1.17;1.13;;;4.80;36.10;;;;;;10351352;28;20226;-72
2023/02/26 16:40:24;;;;;;;2.53;1.10;;;4.70;36.30;;;;;;10350452;28;20230;-72
2023/02/26 16:45:48;;;;;;;1.17;1.10;;;4.60;36.50;;;;;;10351392;28;20757;-72
2023/02/26 16:50:56;;;;;;;1.27;1.20;;;4.70;36.60;;;;;;10347476;28;20226;-72
2023/02/26 16:56:03;;;;;;;1.20;1.10;;;4.60;36.50;;;;;;10353163;28;20707;-71
2023/02/26 17:01:12;;;;;;;1.90;1.70;;;4.50;36.60;;;;;;10351741;28;20222;-71
2023/02/26 17:06:18;;;;;;;1.53;1.30;;;4.50;37.00;;;;;;10351906;28;20226;-71
2023/02/26 17:11:28;;;;;;;1.27;1.20;;;4.40;36.80;;;;;;10360944;28;20229;-71
2023/02/26 17:16:31;;;;;;;1.20;1.10;;;4.40;36.60;;;;;;10358764;28;20230;-70
2023/02/26 17:21:37;;;;;;;1.00;1.00;;;4.50;36.70;;;;;;10354939;28;20266;-70
2023/02/26 17:26:42;;;;;;;1.63;1.30;;;4.40;36.60;;;;;;10355346;28;20641;-70
2023/02/26 17:31:45;;;;;;;1.20;1.20;;;4.50;36.80;;;;;;10356952;28;20233;-70
2023/02/26 17:36:49;;;;;;;1.40;1.10;;;4.30;36.60;;;;;;10356170;28;20234;-71
2023/02/26 17:41:54;;;;;;;1.23;1.20;;;4.30;36.80;;;;;;10353008;28;20234;-72
2023/02/26 17:46:57;;;;;;;1.30;1.30;;;4.30;36.90;;;;;;10351945;28;20237;-72
2023/02/26 17:52:00;;;;;;;1.20;1.20;;;4.30;37.00;;;;;;10356152;28;20230;-72
2023/02/26 17:57:05;;;;;;;1.00;1.00;;;4.20;37.00;;;;;;10353107;28;20226;-73
2023/02/26 18:02:16;;;;;;;1.37;1.27;;;4.20;37.10;;;;;;10353978;28;20594;-72
2023/02/26 18:07:21;;;;;;;1.40;1.30;;;4.20;37.30;;;;;;10354558;28;20609;-73
2023/02/26 18:12:26;;;;;;;1.37;1.27;;;4.20;37.30;;;;;;10358631;28;20233;-73
2023/02/26 18:17:31;;;;;;;2.83;1.50;;;4.10;37.20;;;;;;10354913;28;20233;-73
2023/02/26 18:22:34;;;;;;;1.90;1.80;;;4.30;37.30;;;;;;10359029;28;20241;-73
2023/02/26 18:27:41;;;;;;;1.70;1.60;;;4.10;37.20;;;;;;10352787;28;20719;-73
2023/02/26 18:32:44;;;;;;;1.53;1.37;;;4.30;37.40;;;;;;10361311;28;20313;-72
2023/02/26 18:37:47;;;;;;;1.50;1.20;;;4.20;37.30;;;;;;10355693;28;20733;-72
2023/02/26 18:42:52;;;;;;;1.53;1.43;;;4.20;37.20;;;;;;10354796;28;20234;-72
2023/02/26 18:47:55;;;;;;;2.13;1.93;;;4.20;37.10;;;;;;10356257;28;20245;-70
2023/02/26 18:52:58;;;;;;;1.77;1.67;;;4.20;37.10;;;;;;10358473;28;20226;-70
2023/02/26 18:58:03;;;;;;;1.70;1.60;;;4.20;37.10;;;;;;10352018;28;20623;-72
2023/02/26 19:03:08;;;;;;;1.63;1.53;;;4.10;37.10;;;;;;10353326;28;20238;-72
2023/02/26 19:08:11;;;;;;;2.00;1.47;;;4.10;37.20;;;;;;10354080;28;20226;-72
2023/02/26 19:13:16;;;;;;;1.50;1.40;;;4.10;37.20;;;;;;10357321;28;20230;-72
2023/02/26 19:18:19;;;;;;;1.80;1.70;;;4.10;37.90;;;;;;10354066;28;20234;-72
2023/02/26 19:23:23;;;;;;;1.70;1.60;;;4.00;37.10;;;;;;10355041;28;20230;-72
2023/02/26 19:28:28;;;;;;;2.30;1.83;;;4.00;37.10;;;;;;10357789;28;20236;-71
2023/02/26 19:33:31;;;;;;;1.77;1.67;;;4.00;37.10;;;;;;10362944;28;20231;-72
2023/02/26 19:38:34;;;;;;;2.00;1.80;;;4.00;37.10;;;;;;10360711;28;20236;-72
2023/02/26 19:43:38;;;;;;;1.73;1.63;;;4.00;37.10;;;;;;10359847;28;20597;-72
2023/02/26 19:48:42;;;;;;;1.60;1.50;;;4.10;37.20;;;;;;10360885;28;20242;-72
2023/02/26 19:53:45;;;;;;;1.97;1.43;;;4.00;37.10;;;;;;10364225;28;20230;-72
2023/02/26 19:58:51;;;;;;;1.63;1.53;;;4.00;37.00;;;;;;10360846;28;20247;-73
2023/02/26 20:03:54;;;;;;;2.00;1.60;;;4.00;37.00;;;;;;10363518;28;20596;-72
2023/02/26 20:08:57;;;;;;;1.50;1.40;;;4.00;37.00;;;;;;10362134;28;20237;-72
2023/02/26 20:14:02;;;;;;;1.70;1.40;;;4.00;37.00;;;;;;10360565;28;20229;-72
2023/02/26 20:19:05;;;;;;;1.60;1.50;;;4.00;37.00;;;;;;10360058;28;20280;-70
2023/02/26 20:24:08;;;;;;;2.07;1.60;;;4.00;36.90;;;;;;10361663;28;20715;-70
2023/02/26 20:29:13;;;;;;;2.30;1.60;;;3.90;36.80;;;;;;10362082;28;20603;-70
2023/02/26 20:34:18;;;;;;;1.87;1.70;;;4.00;36.80;;;;;;10361421;28;20225;-70
2023/02/26 20:39:21;;;;;;;1.47;1.37;;;4.00;36.80;;;;;;10361595;28;20222;-70
2023/02/26 20:44:26;;;;;;;1.50;1.40;;;3.90;36.80;;;;;;10359542;28;20230;-71
2023/02/26 20:49:29;;;;;;;2.00;1.80;;;3.90;37.40;;;;;;10356441;28;20230;-71
2023/02/26 20:54:32;;;;;;;1.93;1.40;;;3.90;36.80;;;;;;10360843;28;20302;-70
2023/02/26 20:59:37;;;;;;;1.73;1.50;;;3.90;36.70;;;;;;10358010;28;20595;-70
2023/02/26 21:04:40;;;;;;;2.07;1.37;;;3.90;36.60;;;;;;10359874;28;20226;-71
2023/02/26 21:09:46;;;;;;;2.23;1.50;;;3.90;36.60;;;;;;10357917;28;20226;-70
2023/02/26 21:14:53;;;;;;;2.00;1.43;;;3.80;36.60;;;;;;10359723;28;20230;-70
2023/02/26 21:19:56;;;;;;;2.00;1.50;;;3.70;36.50;;;;;;10352237;28;20292;-71
2023/02/26 21:24:59;;;;;;;1.50;1.40;;;3.80;36.60;;;;;;10355703;28;20787;-70
2023/02/26 21:30:06;;;;;;;1.60;1.30;;;3.70;36.40;;;;;;10355666;28;20222;-71
2023/02/26 21:35:14;;;;;;;1.40;1.30;;;3.60;36.40;;;;;;10355812;28;20776;-72
2023/02/26 21:40:17;;;;;;;1.20;1.10;;;3.60;36.50;;;;;;10354365;28;20226;-72
2023/02/26 21:45:22;;;;;;;1.57;1.30;;;3.60;36.60;;;;;;10354104;28;20233;-72
2023/02/26 21:50:25;;;;;;;1.50;1.40;;;3.50;36.50;;;;;;10355348;28;20222;-73
2023/02/26 21:55:29;;;;;;;1.67;1.53;;;3.50;36.60;;;;;;10351934;28;20741;-72
2023/02/26 22:00:33;;;;;;;1.50;1.40;;;3.50;36.60;;;;;;10353713;28;20364;-72
2023/02/26 22:05:37;;;;;;;1.60;1.50;;;3.50;36.50;;;;;;10360257;28;20234;-70
2023/02/26 22:10:40;;;;;;;2.27;1.40;;;3.50;36.70;;;;;;10358687;28;20229;-71
2023/02/26 22:15:45;;;;;;;2.10;1.70;;;3.50;36.60;;;;;;10359626;28;20973;-72
2023/02/26 22:20:48;;;;;;;1.63;1.50;;;3.40;36.60;;;;;;10359510;28;20571;-72
2023/02/26 22:25:51;;;;;;;1.40;1.30;;;3.40;36.70;;;;;;10356703;28;20241;-71
2023/02/26 22:30:56;;;;;;;1.30;1.20;;;3.50;36.80;;;;;;10357154;28;20222;-72
2023/02/26 22:36:00;;;;;;;1.47;1.30;;;3.40;36.60;;;;;;10359891;28;20696;-72
2023/02/26 22:41:03;;;;;;;1.50;1.40;;;3.40;36.70;;;;;;10359121;28;20222;-72
2023/02/26 22:46:08;;;;;;;1.33;1.27;;;3.40;36.70;;;;;;10358028;28;20229;-71
2023/02/26 22:51:11;;;;;;;1.47;1.30;;;3.50;36.70;;;;;;10355890;28;20764;-72
2023/02/26 22:56:15;;;;;;;1.77;1.30;;;3.40;36.70;;;;;;10357167;28;20234;-72
2023/02/26 23:01:20;;;;;;;2.33;1.37;;;3.40;36.50;;;;;;10354541;28;20230;-72
2023/02/26 23:06:23;;;;;;;1.87;1.50;;;3.40;36.30;;;;;;10357081;28;20580;-72
2023/02/26 23:11:26;;;;;;;2.13;1.50;;;3.40;36.30;;;;;;10358435;28;20711;-72
2023/02/26 23:16:31;;;;;;;1.40;1.30;;;3.40;36.40;;;;;;10357687;28;20841;-72
2023/02/26 23:21:34;;;;;;;1.77;1.50;;;3.40;36.30;;;;;;10356058;28;20647;-72
2023/02/26 23:26:37;;;;;;;2.00;1.47;;;3.40;36.30;;;;;;10358175;28;20906;-72
2023/02/26 23:31:42;;;;;;;2.50;1.30;;;3.40;36.30;;;;;;10357223;28;20226;-70
2023/02/26 23:36:45;;;;;;;1.47;1.37;;;3.40;36.30;;;;;;10357057;28;20780;-70
2023/02/26 23:41:48;;;;;;;1.27;1.23;;;3.30;36.30;;;;;;10358622;28;20230;-71
2023/02/26 23:46:53;;;;;;;1.70;1.40;;;3.20;36.20;;;;;;10357828;28;20246;-71
2023/02/26 23:51:56;;;;;;;1.50;1.40;;;3.20;36.20;;;;;;10352340;28;20285;-70
2023/02/26 23:56:59;;;;;;;1.70;1.40;;;3.20;36.40;;;;;;10356431;28;20742;-71
